Aktualne dane pomiarowe

Uwaga, wersja testowa! Automatyczne pobieranie danych za pomocą narzędzi lub skryptów to umożliwiających jest zabronione.

Dane meteo z obszaru Polski uzyskane na podstawie depesz SYNOP pobieranych co godzinę z NWS. Najedź myszką na symbol przedstawiony w tabeli, aby uzyskać informacje co do jego znaczenia. Prosimy pamiętać, że to testowa wersja strony, która jeszcze nie jest ukończona. Stworzono również jest krótki FAQ dotyczący korzystania z tej podstrony Anomalie temperatury w chwili obecnej odniesione są do okresu referencyjnego 1951-2016. Okres ten będzie później zmieniony na 1981-2010. Kliknij ikonę aby pobrać plik CSV. Kliknij ikonę aby wygenerować mapę synoptyczną dla danego terminu.

Wybierz Datę:    

        

Tomaszów Mazowiecki (12466)

Dane terminowe dla wybranej stacji. Kliknij datę, aby otrzymać dane z tego terminu dla wszystkich stacji.

TemperaturaZachmurzenieWiatrCiśnienieOpadyPogoda
 Data t td wb tx tn tg rh  Nt Nl Cl Cm Ch ws wd g1 g2 wx mslp ppp ch 24h 12h t ww ww w1 w2  
2019-06-22 23:00:00 15.0 10.0 11.8--- 72---3wx---1021.91000.0----------
2019-06-22 22:00:00 15.8 10.4 12.4--- 70---3wx---1021.6 999.8----------
2019-06-22 21:00:00 16.6 10.2 12.6--- 66---3wx---1021.0 999.2----------
2019-06-22 20:00:00 17.1 10.5 13.0--- 65---2wx---1020.6 998.9----------
2019-06-22 19:00:00 20.0 10.7 14.4--- 55---2wx---1020.5 999.0----------
2019-06-22 18:00:00 22.0 9.9 14.9--- 46---3wx---1020.2 998.9----------
2019-06-22 17:00:00 24.1 9.7 15.7--- 40---3wx---1020.3 999.1----------
2019-06-22 16:00:00 24.6 9.4 15.8--- 38---5wx---1020.0 998.9----------
2019-06-22 14:00:00 24.6 9.8 15.9--- 39---4wx---1020.7 999.5----------
2019-06-22 13:00:00 24.0 10.0 15.8--- 41---4wx---1021.21000.0----------
2019-06-22 12:00:00 24.8 10.3 16.2--- 40---4wx---1021.51000.3----------
2019-06-22 11:00:00 23.7 10.8 16.0--- 44---5wx---1022.01000.8----------
2019-06-22 10:00:00 23.1 10.6 15.7--- 45---4wx---1022.11000.8----------
2019-06-22 09:00:00 22.2 11.9 15.9--- 52---5wx---1022.21000.8----------
2019-06-22 08:00:00 21.0 13.5 16.2--- 62---5wx---1022.11000.7----------
2019-06-22 07:00:00 19.9 14.3 16.2--- 70---5wx---1022.01000.5----------
2019-06-22 06:00:00 18.2 14.7 15.8--- 80---4wx---1021.91000.2----------
2019-06-22 05:00:00 16.9 14.9 15.5--- 88---4wx---1021.4 999.7----------
2019-06-22 04:00:00 16.6 16.0 16.1--- 96---4wx---1021.1 999.3----------
2019-06-22 03:00:00 16.2 15.9 16.0--- 98---4wx---1020.5 998.7----------
2019-06-22 02:00:00 14.8 14.5 14.6--- 98---3wx---1020.0 998.1----------
2019-06-22 01:00:00 14.9 14.3 14.4--- 96---2wx---1019.2 997.4----------
2019-06-22 00:00:00 15.7 14.9 15.1--- 95---3wx---1018.9 997.1----------
2019-06-21 23:00:00 16.7 15.7 16.0--- 94---3wx---1018.6 996.9----------
2019-06-21 22:00:00 17.2 16.7 16.8--- 97---2wx---1018.0 996.4----------
2019-06-21 21:00:00 17.7 17.1 17.3--- 96---1wx---1017.6 996.0----------
2019-06-21 20:00:00 18.3 17.2 17.5--- 93---0wx---1017.2 995.7----------
2019-06-21 19:00:00 18.6 17.3 17.7--- 92---2wx---1016.6 995.1----------
2019-06-21 18:00:00- 17.6--------6wx---1016.3 994.8----------
2019-06-21 17:00:00 24.0 16.8 19.2--- 64---2wx---1015.5 994.4----------
2019-06-21 16:00:00 24.9 17.6 20.0--- 64---2wx---1014.6 993.6----------
2019-06-21 15:00:00 22.5 18.3 19.6--- 77---2wx---1014.6 993.4----------
2019-06-21 14:00:00 23.9 16.2 18.8--- 6210.0wxwxwxwx6wx---1014.7 993.6 0.9---wx---
2019-06-21 13:00:00 28.3 14.2 19.5--- 4210.0wxwxwxwx7wx---1013.4 992.7 -0.7---------
2019-06-21 12:00:00 28.8 13.5 19.3--- 3910.0wxwxwxwx3wx---1013.4 992.7 -0.5---------
2019-06-21 11:00:00 29.1 12.6 19.0--- 3610.0wxwxwxwx3wx---1013.4 992.7 -0.3---------
2019-06-21 10:00:00 28.2 13.7 19.2--- 4110.0wxwxwxwx3wx---1014.2 993.4 0.7---------
2019-06-21 09:00:00 26.9 15.0 19.3--- 4810.0wx-wx4wx---1014.0 993.2 0.7---------
2019-06-21 08:00:00 25.3 16.1 19.3--- 5710.0wx-wx2wx---1014.0 993.0 0.7---------
2019-06-21 07:00:00 23.1 16.4 18.6--- 6610.0wx-wx1wx---1013.8 992.7 0.6---------
2019-06-21 06:00:00 21.4 16.8 18.2--- 7510.0wx-wx1wx---1013.7 992.5 0.9---------
2019-06-21 05:00:00 18.3 16.8 17.2--- 9110.0wx-wxwx0----1013.8 992.3 0.8---------
2019-06-21 04:00:00 16.5 15.9 16.0--- 9610.0wx-wxwx0----1013.7 992.1 1.7---------
2019-06-21 03:00:00 15.9 15.1 15.3--- 95---1wx---1013.2 991.6----------
2019-06-21 02:00:00 16.5 15.5 15.8--- 94---1wx---1013.1 991.5----------
2019-06-21 01:00:00 17.4 15.0 15.7--- 86---1wx---1011.9 990.4----------
2019-06-21 00:00:00 18.7 15.8 16.7--- 83---2wx---1011.7 990.3----------
2.5 ms

 

Print Friendly, PDF & Email